createdAt,value
2023-03-06T00:00:57.230Z,1.04
2023-03-06T00:07:08.779Z,0.55
2023-03-06T00:13:20.261Z,0.96
2023-03-06T00:19:29.737Z,1.08
2023-03-06T00:25:32.253Z,0.93
2023-03-06T00:31:35.740Z,1.12
2023-03-06T00:37:38.214Z,0.69
2023-03-06T00:43:40.649Z,0.47
2023-03-06T00:49:43.090Z,1.02
2023-03-06T00:55:46.588Z,1.35
2023-03-06T01:01:53.266Z,1.56
2023-03-06T01:07:55.536Z,1.40
2023-03-06T01:13:57.980Z,1.77
2023-03-06T01:20:00.486Z,1.90
2023-03-06T01:26:02.926Z,1.81
2023-03-06T01:32:05.563Z,1.88
2023-03-06T01:38:07.807Z,1.91
2023-03-06T01:44:14.295Z,1.96
2023-03-06T01:50:17.803Z,1.89
2023-03-06T01:56:21.309Z,1.85
2023-03-06T02:02:23.777Z,1.84
2023-03-06T02:08:36.606Z,1.87
2023-03-06T02:14:49.973Z,1.88
2023-03-06T02:21:00.246Z,1.86
2023-03-06T02:27:04.724Z,1.90
2023-03-06T02:33:09.926Z,1.94
2023-03-06T02:39:15.705Z,1.68
2023-03-06T02:45:41.201Z,1.88
2023-03-06T02:51:43.732Z,1.77
2023-03-06T02:57:46.174Z,1.84
2023-03-06T03:03:49.681Z,1.88
2023-03-06T03:09:52.078Z,1.94
2023-03-06T03:16:03.632Z,1.49
2023-03-06T03:22:06.095Z,1.51
2023-03-06T03:28:08.463Z,1.67
2023-03-06T03:34:10.381Z,1.53
2023-03-06T03:40:12.712Z,1.61
2023-03-06T03:46:15.886Z,0.47
2023-03-06T03:52:18.292Z,1.67
2023-03-06T03:58:20.421Z,1.91
2023-03-06T04:04:23.260Z,1.61
2023-03-06T04:10:25.675Z,1.68
2023-03-06T04:16:31.909Z,1.83
2023-03-06T04:22:34.592Z,2.03
2023-03-06T04:28:38.022Z,1.99
2023-03-06T04:34:41.890Z,2.08
2023-03-06T04:40:50.608Z,1.96
2023-03-06T04:46:59.016Z,2.05
2023-03-06T04:53:02.949Z,0.45
2023-03-06T04:59:09.791Z,1.48
2023-03-06T05:05:12.939Z,1.21
2023-03-06T05:11:15.322Z,1.77
2023-03-06T05:17:17.836Z,1.84
2023-03-06T05:23:20.257Z,1.50
2023-03-06T05:29:23.752Z,0.52
2023-03-06T05:35:26.245Z,1.00
2023-03-06T05:41:29.704Z,0.67
2023-03-06T05:47:34.111Z,1.76
2023-03-06T05:53:36.607Z,1.29
2023-03-06T05:59:39.106Z,1.07
2023-03-06T06:05:46.654Z,1.57
2023-03-06T06:11:54.110Z,1.66
2023-03-06T06:17:58.527Z,1.97
2023-03-06T06:24:01.011Z,1.86
2023-03-06T06:30:07.136Z,1.43
2023-03-06T06:36:23.375Z,2.31
2023-03-06T06:42:39.030Z,2.35
2023-03-06T06:48:41.980Z,2.42
2023-03-06T06:54:44.506Z,2.52
2023-03-06T07:00:48.887Z,2.62
2023-03-06T07:06:52.393Z,1.99
2023-03-06T07:12:55.798Z,2.52
2023-03-06T07:18:58.617Z,3.01
2023-03-06T07:25:01.826Z,1.78
2023-03-06T07:31:13.671Z,3.31
2023-03-06T07:37:28.037Z,3.38
2023-03-06T07:44:00.814Z,2.90
2023-03-06T07:50:21.903Z,3.65
2023-03-06T07:56:32.643Z,3.34
2023-03-06T08:02:38.953Z,3.82
2023-03-06T08:08:43.372Z,4.00
2023-03-06T08:21:16.437Z,4.27
2023-03-06T08:27:22.756Z,4.42
2023-03-06T08:33:30.378Z,4.25
2023-03-06T08:39:37.786Z,4.93
2023-03-06T08:45:41.359Z,4.97
2023-03-06T08:51:52.177Z,5.00
2023-03-06T08:57:57.455Z,5.23
2023-03-06T09:04:56.332Z,5.33
2023-03-06T09:10:47.256Z,5.50
2023-03-06T09:16:49.833Z,5.60
2023-03-06T09:23:05.276Z,5.77
2023-03-06T09:29:12.408Z,5.09
2023-03-06T09:35:15.352Z,5.47
2023-03-06T09:41:38.320Z,6.31
2023-03-06T09:48:08.016Z,6.42
2023-03-06T09:54:24.816Z,5.38
2023-03-06T10:01:03.408Z,5.85
2023-03-06T10:07:49.055Z,6.93
2023-03-06T10:13:56.514Z,7.13
2023-03-06T10:20:14.232Z,7.58
2023-03-06T10:26:40.345Z,7.92
2023-03-06T10:39:23.677Z,7.79
2023-03-06T10:45:49.000Z,8.04
2023-03-06T10:52:50.914Z,8.35
2023-03-06T10:59:20.322Z,8.53
2023-03-06T11:05:46.766Z,8.48
2023-03-06T11:12:09.765Z,8.47
2023-03-06T11:18:46.200Z,7.77
2023-03-06T11:24:54.550Z,7.56
2023-03-06T11:31:13.665Z,8.59
2023-03-06T11:37:43.733Z,8.77
2023-03-06T11:44:23.439Z,8.95
2023-03-06T11:50:38.501Z,8.88
2023-03-06T11:57:00.459Z,8.70
2023-03-06T12:03:21.052Z,9.04
2023-03-06T12:09:36.779Z,8.61
2023-03-06T12:16:09.318Z,9.88
2023-03-06T12:22:42.263Z,10.13
2023-03-06T12:29:10.264Z,10.24
2023-03-06T12:35:33.000Z,9.96
2023-03-06T12:41:48.299Z,8.88
2023-03-06T12:48:04.261Z,9.20
2023-03-06T12:54:09.967Z,8.79
2023-03-06T13:01:09.085Z,7.86
2023-03-06T13:07:23.618Z,8.95
2023-03-06T13:13:41.659Z,8.99
2023-03-06T13:19:44.574Z,8.93
2023-03-06T13:25:50.114Z,9.48
2023-03-06T13:32:13.511Z,9.72
2023-03-06T13:38:42.690Z,8.72
2023-03-06T13:45:30.861Z,9.44
2023-03-06T13:51:42.324Z,9.43
2023-03-06T13:58:04.915Z,9.26
2023-03-06T14:04:59.588Z,8.95
2023-03-06T14:11:12.193Z,8.59
2023-03-06T14:17:38.637Z,8.62
2023-03-06T14:23:49.339Z,8.54
2023-03-06T14:29:58.589Z,8.18
2023-03-06T14:36:07.988Z,8.19
2023-03-06T14:42:27.616Z,8.27
2023-03-06T14:48:49.938Z,8.13
2023-03-06T14:54:52.638Z,7.87
2023-03-06T15:00:58.297Z,7.93
2023-03-06T15:07:00.610Z,7.88
2023-03-06T15:13:12.089Z,7.69
2023-03-06T15:19:22.532Z,7.76
2023-03-06T15:25:34.070Z,7.64
2023-03-06T15:31:45.656Z,7.25
2023-03-06T15:37:54.107Z,7.40
2023-03-06T15:44:22.175Z,7.76
2023-03-06T15:50:27.103Z,7.68
2023-03-06T15:56:32.629Z,7.41
2023-03-06T16:02:37.533Z,7.30
2023-03-06T16:08:39.352Z,6.83
2023-03-06T16:14:41.399Z,7.29
2023-03-06T16:20:44.403Z,5.49
2023-03-06T16:26:51.904Z,6.82
2023-03-06T16:32:54.329Z,6.58
2023-03-06T16:38:57.768Z,6.74
2023-03-06T16:45:02.768Z,6.74
2023-03-06T16:51:05.710Z,6.45
2023-03-06T16:57:17.214Z,6.51
2023-03-06T17:03:28.288Z,6.05
2023-03-06T17:09:31.145Z,5.98
2023-03-06T17:15:35.895Z,4.77
2023-03-06T17:21:45.818Z,5.57
2023-03-06T17:27:54.653Z,4.74
2023-03-06T17:34:01.139Z,4.55
2023-03-06T17:40:04.538Z,4.45
2023-03-06T17:46:13.114Z,2.90
2023-03-06T17:52:22.641Z,4.47
2023-03-06T17:58:26.083Z,4.33
2023-03-06T18:04:31.483Z,4.14
2023-03-06T18:10:33.939Z,3.49
2023-03-06T18:16:37.493Z,2.20
2023-03-06T18:22:39.853Z,2.90
2023-03-06T18:28:54.725Z,2.03
2023-03-06T18:35:04.262Z,3.13
2023-03-06T18:41:10.881Z,1.79
2023-03-06T18:47:14.859Z,1.47
2023-03-06T18:53:21.314Z,1.04
2023-03-06T18:59:30.132Z,2.28
2023-03-06T19:05:32.245Z,1.31
2023-03-06T19:11:35.716Z,2.28
2023-03-06T19:17:39.256Z,1.72
2023-03-06T19:23:45.646Z,2.25
2023-03-06T19:29:48.114Z,1.35
2023-03-06T19:35:50.728Z,1.22
2023-03-06T19:41:54.031Z,1.84
2023-03-06T19:48:01.546Z,1.42
2023-03-06T19:54:04.050Z,1.75
2023-03-06T20:00:13.518Z,2.05
2023-03-06T20:06:19.033Z,1.55
2023-03-06T20:12:21.484Z,2.23
2023-03-06T20:18:23.935Z,-0.08
2023-03-06T20:24:28.479Z,1.13
2023-03-06T20:30:38.153Z,1.58
2023-03-06T20:36:41.328Z,2.01
2023-03-06T20:42:43.794Z,0.97
2023-03-06T20:48:49.656Z,1.59
2023-03-06T20:54:51.730Z,0.87
2023-03-06T21:00:54.161Z,1.61
2023-03-06T21:06:56.714Z,1.43
2023-03-06T21:13:06.246Z,1.20
2023-03-06T21:19:16.174Z,1.31
2023-03-06T21:25:18.135Z,1.50
2023-03-06T21:31:22.753Z,1.89
2023-03-06T21:37:25.058Z,1.62
2023-03-06T21:43:28.852Z,0.46
2023-03-06T21:49:30.961Z,1.38
2023-03-06T21:55:33.423Z,0.84
2023-03-06T22:01:35.905Z,0.07
2023-03-06T22:07:39.361Z,0.71
2023-03-06T22:13:45.582Z,1.00
2023-03-06T22:19:52.397Z,1.23
2023-03-06T22:26:01.916Z,1.11
2023-03-06T22:32:04.458Z,0.75
2023-03-06T22:38:06.778Z,0.67
2023-03-06T22:44:16.244Z,0.83
2023-03-06T22:50:28.081Z,0.76
2023-03-06T22:56:31.216Z,1.30
2023-03-06T23:02:35.119Z,1.41
2023-03-06T23:08:39.473Z,1.75
2023-03-06T23:14:41.686Z,0.60
2023-03-06T23:20:45.078Z,1.64
2023-03-06T23:26:49.842Z,1.35
2023-03-06T23:32:59.090Z,1.39
2023-03-06T23:39:01.511Z,1.47
2023-03-06T23:45:12.370Z,1.40
2023-03-06T23:51:18.508Z,1.38
2023-03-06T23:57:20.918Z,1.16
